createdAt,value
2023-01-17T00:02:13.932Z,3.51
2023-01-17T00:04:59.588Z,3.51
2023-01-17T00:07:45.869Z,3.47
2023-01-17T00:10:16.948Z,3.51
2023-01-17T00:12:50.473Z,3.49
2023-01-17T00:15:19.785Z,3.50
2023-01-17T00:17:48.709Z,3.46
2023-01-17T00:20:36.239Z,3.49
2023-01-17T00:23:25.208Z,3.45
2023-01-17T00:26:05.877Z,3.44
2023-01-17T00:28:37.115Z,3.46
2023-01-17T00:31:06.525Z,3.44
2023-01-17T00:33:33.947Z,3.43
2023-01-17T00:36:02.508Z,3.41
2023-01-17T00:38:31.855Z,3.39
2023-01-17T00:41:03.889Z,3.40
2023-01-17T00:43:50.044Z,3.42
2023-01-17T00:46:37.652Z,3.45
2023-01-17T00:49:23.876Z,3.39
2023-01-17T00:52:10.946Z,3.35
2023-01-17T00:54:56.356Z,3.42
2023-01-17T00:57:42.202Z,3.39
2023-01-17T01:00:29.844Z,3.35
2023-01-17T01:03:16.918Z,3.36
2023-01-17T01:06:02.470Z,3.36
2023-01-17T01:08:49.315Z,3.35
2023-01-17T01:11:38.953Z,3.33
2023-01-17T01:14:27.003Z,3.36
2023-01-17T01:17:12.478Z,3.33
2023-01-17T01:19:59.598Z,3.34
2023-01-17T01:22:45.059Z,3.17
2023-01-17T01:25:30.640Z,3.12
2023-01-17T01:28:23.637Z,3.05
2023-01-17T01:31:09.012Z,3.01
2023-01-17T01:33:37.147Z,3.06
2023-01-17T01:36:09.813Z,3.02
2023-01-17T01:38:38.601Z,3.09
2023-01-17T01:41:07.550Z,3.16
2023-01-17T01:43:46.749Z,3.13
2023-01-17T01:46:21.295Z,3.14
2023-01-17T01:48:54.720Z,3.11
2023-01-17T01:51:30.459Z,3.11
2023-01-17T01:54:07.820Z,3.17
2023-01-17T01:56:37.089Z,3.21
2023-01-17T01:59:10.669Z,3.22
2023-01-17T02:01:38.900Z,3.24
2023-01-17T02:04:09.832Z,3.25
2023-01-17T02:06:44.997Z,3.26
2023-01-17T02:09:16.030Z,3.26
2023-01-17T02:11:46.389Z,3.25
2023-01-17T02:14:17.095Z,3.30
2023-01-17T02:17:06.143Z,3.27
2023-01-17T02:20:20.422Z,3.25
2023-01-17T02:23:28.886Z,3.23
2023-01-17T02:27:01.654Z,3.24
2023-01-17T02:30:20.834Z,3.22
2023-01-17T02:33:23.309Z,3.21
2023-01-17T02:36:05.097Z,3.16
2023-01-17T02:38:44.462Z,3.12
2023-01-17T02:41:22.922Z,3.08
2023-01-17T02:43:53.314Z,3.05
2023-01-17T02:46:21.684Z,3.07
2023-01-17T02:48:52.687Z,3.02
2023-01-17T02:51:52.236Z,3.08
2023-01-17T02:55:06.413Z,3.01
2023-01-17T02:57:59.366Z,3.00
2023-01-17T03:00:42.299Z,2.99
2023-01-17T03:03:27.060Z,3.00
2023-01-17T03:06:11.451Z,2.98
2023-01-17T03:08:44.318Z,2.97
2023-01-17T03:11:14.735Z,2.94
2023-01-17T03:13:42.815Z,2.94
2023-01-17T03:16:18.316Z,2.97
2023-01-17T03:18:46.662Z,2.97
2023-01-17T03:21:16.055Z,2.99
2023-01-17T03:23:44.137Z,2.96
2023-01-17T03:26:12.216Z,2.98
2023-01-17T03:28:40.219Z,2.99
2023-01-17T03:31:08.493Z,2.99
2023-01-17T03:33:36.755Z,3.01
2023-01-17T03:36:05.704Z,2.99
2023-01-17T03:38:37.184Z,3.01
2023-01-17T03:41:05.674Z,3.02
2023-01-17T03:43:33.786Z,3.03
2023-01-17T03:46:07.008Z,3.02
2023-01-17T03:48:35.515Z,3.01
2023-01-17T03:51:03.606Z,3.05
2023-01-17T03:53:31.614Z,3.05
2023-01-17T03:56:00.996Z,3.07
2023-01-17T03:58:29.040Z,3.13
2023-01-17T04:00:57.184Z,3.13
2023-01-17T04:03:25.321Z,3.10
2023-01-17T04:05:53.343Z,3.10
2023-01-17T04:08:21.459Z,3.14
2023-01-17T04:10:49.520Z,3.12
2023-01-17T04:13:18.968Z,3.10
2023-01-17T04:15:50.064Z,3.08
2023-01-17T04:18:20.111Z,3.09
2023-01-17T04:20:48.369Z,3.10
2023-01-17T04:23:16.382Z,3.11
2023-01-17T04:25:44.609Z,3.15
2023-01-17T04:28:13.302Z,3.15
2023-01-17T04:30:43.039Z,3.14
2023-01-17T04:33:11.093Z,3.17
2023-01-17T04:35:39.148Z,3.15
2023-01-17T04:38:07.190Z,3.14
2023-01-17T04:40:35.236Z,3.16
2023-01-17T04:43:03.275Z,3.17
2023-01-17T04:45:31.306Z,3.19
2023-01-17T04:48:06.141Z,3.18
2023-01-17T04:50:34.743Z,3.17
2023-01-17T04:53:02.750Z,3.14
2023-01-17T04:55:30.886Z,3.10
2023-01-17T04:57:58.947Z,3.11
2023-01-17T05:00:27.103Z,3.12
2023-01-17T05:02:55.225Z,3.04
2023-01-17T05:05:24.698Z,3.03
2023-01-17T05:07:56.553Z,3.03
2023-01-17T05:10:25.453Z,2.97
2023-01-17T05:12:56.132Z,2.95
2023-01-17T05:15:25.410Z,2.92
2023-01-17T05:17:54.864Z,2.90
2023-01-17T05:20:27.020Z,2.89
2023-01-17T05:22:56.416Z,2.91
2023-01-17T05:25:24.994Z,2.88
2023-01-17T05:27:53.697Z,2.84
2023-01-17T05:30:22.901Z,2.79
2023-01-17T05:32:52.930Z,2.74
2023-01-17T05:35:25.858Z,2.78
2023-01-17T05:37:54.248Z,2.71
2023-01-17T05:40:24.741Z,2.63
2023-01-17T05:42:56.600Z,2.59
2023-01-17T05:45:28.038Z,2.52
2023-01-17T05:47:58.333Z,2.45
2023-01-17T05:50:30.223Z,2.46
2023-01-17T05:53:01.283Z,2.31
2023-01-17T05:55:31.567Z,2.26
2023-01-17T05:58:00.049Z,2.29
2023-01-17T06:00:28.884Z,2.26
2023-01-17T06:02:58.964Z,2.22
2023-01-17T06:05:29.635Z,2.24
2023-01-17T06:07:57.848Z,2.22
2023-01-17T06:10:26.933Z,2.25
2023-01-17T06:13:03.728Z,2.09
2023-01-17T06:15:32.100Z,1.93
2023-01-17T06:18:05.164Z,1.88
2023-01-17T06:20:35.009Z,1.77
2023-01-17T06:23:04.325Z,1.71
2023-01-17T06:25:37.642Z,1.66
2023-01-17T06:28:06.256Z,1.64
2023-01-17T06:30:34.526Z,1.67
2023-01-17T06:33:03.228Z,1.62
2023-01-17T06:35:32.063Z,1.60
2023-01-17T06:38:01.600Z,1.66
2023-01-17T06:40:31.168Z,1.67
2023-01-17T06:43:02.056Z,1.69
2023-01-17T06:45:30.952Z,1.74
2023-01-17T06:47:59.814Z,1.70
2023-01-17T06:50:28.154Z,1.78
2023-01-17T06:52:58.116Z,1.72
2023-01-17T06:55:29.239Z,1.75
2023-01-17T06:57:59.407Z,1.69
2023-01-17T07:00:29.390Z,1.71
2023-01-17T07:02:57.685Z,1.73
2023-01-17T07:05:25.975Z,1.61
2023-01-17T07:07:54.114Z,1.49
2023-01-17T07:10:23.569Z,1.40
2023-01-17T07:12:52.932Z,1.42
2023-01-17T07:15:20.964Z,1.41
2023-01-17T07:17:49.023Z,1.45
2023-01-17T07:20:17.507Z,1.47
2023-01-17T07:22:46.251Z,1.46
2023-01-17T07:25:14.361Z,1.50
2023-01-17T07:27:42.392Z,1.58
2023-01-17T07:30:14.241Z,1.65
2023-01-17T07:32:42.421Z,1.64
2023-01-17T07:35:10.995Z,1.63
2023-01-17T07:37:39.906Z,1.62
2023-01-17T07:40:09.774Z,1.63
2023-01-17T07:42:37.792Z,1.65
2023-01-17T07:45:07.781Z,1.65
2023-01-17T07:47:37.186Z,1.64
2023-01-17T07:50:06.505Z,1.57
2023-01-17T07:52:34.563Z,1.57
2023-01-17T07:55:02.641Z,1.57
2023-01-17T07:57:32.493Z,1.60
2023-01-17T08:00:00.535Z,1.62
2023-01-17T08:02:28.602Z,1.59
2023-01-17T08:04:58.000Z,1.62
2023-01-17T08:07:26.096Z,1.61
2023-01-17T08:09:55.404Z,1.59
2023-01-17T08:12:23.443Z,1.64
2023-01-17T08:14:51.451Z,1.65
2023-01-17T08:17:20.407Z,1.68
2023-01-17T08:19:51.190Z,1.66
2023-01-17T08:22:20.692Z,1.68
2023-01-17T08:24:48.935Z,1.69
2023-01-17T08:27:16.986Z,1.70
2023-01-17T08:29:48.216Z,1.76
2023-01-17T08:32:16.619Z,1.75
2023-01-17T08:34:45.048Z,1.80
2023-01-17T08:37:13.037Z,1.77
2023-01-17T08:39:42.526Z,1.78
2023-01-17T08:42:10.744Z,1.84
2023-01-17T08:44:39.725Z,1.86
2023-01-17T08:47:07.916Z,1.85
2023-01-17T08:49:35.982Z,1.88
2023-01-17T08:52:05.136Z,1.92
2023-01-17T08:54:33.473Z,1.92
2023-01-17T08:57:04.769Z,1.94
2023-01-17T08:59:32.800Z,1.97
2023-01-17T09:02:06.613Z,2.01
2023-01-17T09:04:35.177Z,2.01
2023-01-17T09:07:03.238Z,2.01
2023-01-17T09:09:31.241Z,2.04
2023-01-17T09:11:59.337Z,2.03
2023-01-17T09:14:28.743Z,2.04
2023-01-17T09:16:56.851Z,2.06
2023-01-17T09:19:24.906Z,2.05
2023-01-17T09:21:52.914Z,2.03
2023-01-17T09:24:21.042Z,1.96
2023-01-17T09:26:49.126Z,1.95
2023-01-17T09:29:18.715Z,2.00
2023-01-17T09:31:48.186Z,2.01
2023-01-17T09:34:18.499Z,2.03
2023-01-17T09:36:46.769Z,2.08
2023-01-17T09:39:15.532Z,2.07
2023-01-17T09:41:53.871Z,2.11
2023-01-17T09:44:30.647Z,2.16
2023-01-17T09:47:05.822Z,2.15
2023-01-17T09:49:39.578Z,2.19
2023-01-17T09:52:13.010Z,2.21
2023-01-17T09:54:46.091Z,2.22
2023-01-17T09:57:39.668Z,2.24
2023-01-17T10:00:26.534Z,2.27
2023-01-17T10:03:28.684Z,2.31
2023-01-17T10:06:23.379Z,2.34
2023-01-17T10:09:25.230Z,2.36
2023-01-17T10:12:18.630Z,2.38
2023-01-17T10:15:07.051Z,2.38
2023-01-17T10:17:52.976Z,2.40
2023-01-17T10:20:44.060Z,2.43
2023-01-17T10:23:39.322Z,2.44
2023-01-17T10:26:12.914Z,2.45
2023-01-17T10:28:50.503Z,2.49
2023-01-17T10:31:24.905Z,2.51
2023-01-17T10:33:55.510Z,2.56
2023-01-17T10:36:28.507Z,2.57
2023-01-17T10:39:01.572Z,2.58
2023-01-17T10:41:34.298Z,2.59
2023-01-17T10:44:15.948Z,2.62
2023-01-17T10:46:52.751Z,2.65
2023-01-17T10:49:25.646Z,2.67
2023-01-17T10:52:12.749Z,2.64
2023-01-17T10:55:04.940Z,2.64
2023-01-17T10:57:43.270Z,2.66
2023-01-17T11:00:45.355Z,2.65
2023-01-17T11:03:15.357Z,2.70
2023-01-17T11:05:44.301Z,2.72
2023-01-17T11:08:15.778Z,2.76
2023-01-17T11:10:46.432Z,2.80
2023-01-17T11:13:30.399Z,2.80
2023-01-17T11:16:02.408Z,2.81
2023-01-17T11:18:33.910Z,2.86
2023-01-17T11:21:15.573Z,2.91
2023-01-17T11:23:47.771Z,2.90
2023-01-17T11:26:27.611Z,2.90
2023-01-17T11:29:16.188Z,2.90
2023-01-17T11:31:44.250Z,2.99
2023-01-17T11:34:18.989Z,3.02
2023-01-17T11:36:47.230Z,3.04
2023-01-17T11:39:29.705Z,3.13
2023-01-17T11:41:58.355Z,3.17
2023-01-17T11:44:30.256Z,3.18
2023-01-17T11:47:16.946Z,3.21
2023-01-17T11:49:48.179Z,3.18
2023-01-17T11:52:25.176Z,3.19
2023-01-17T11:54:56.646Z,3.27
2023-01-17T11:57:28.840Z,3.35
2023-01-17T12:00:16.562Z,3.43
2023-01-17T12:03:15.122Z,3.47
2023-01-17T12:05:59.787Z,3.55
2023-01-17T12:08:51.411Z,3.60
2023-01-17T12:11:37.149Z,3.54
2023-01-17T12:14:22.407Z,3.65
2023-01-17T12:17:10.913Z,3.62
2023-01-17T12:20:05.564Z,3.66
2023-01-17T12:23:00.884Z,3.76
2023-01-17T12:25:54.502Z,3.95
2023-01-17T12:29:20.533Z,4.03
2023-01-17T12:32:05.918Z,3.76
2023-01-17T12:34:40.944Z,3.61
2023-01-17T12:37:21.024Z,3.62
2023-01-17T12:39:58.122Z,3.49
2023-01-17T12:42:36.093Z,3.64
2023-01-17T12:45:11.094Z,3.55
2023-01-17T12:47:46.541Z,3.65
2023-01-17T12:50:27.255Z,3.69
2023-01-17T12:53:05.952Z,3.50
2023-01-17T12:55:42.954Z,3.47
2023-01-17T12:58:19.836Z,3.36
2023-01-17T13:00:57.190Z,3.37
2023-01-17T13:03:42.407Z,3.40
2023-01-17T13:06:25.981Z,3.43
2023-01-17T13:09:01.580Z,3.47
2023-01-17T13:11:38.983Z,3.49
2023-01-17T13:14:11.135Z,3.43
2023-01-17T13:16:46.297Z,3.44
2023-01-17T13:19:30.413Z,3.45
2023-01-17T13:22:02.529Z,3.47
2023-01-17T13:24:41.467Z,3.44
2023-01-17T13:27:58.285Z,3.43
2023-01-17T13:30:49.081Z,3.40
2023-01-17T13:33:47.993Z,3.41
2023-01-17T13:36:50.446Z,3.47
2023-01-17T13:39:50.303Z,3.40
2023-01-17T13:42:30.243Z,3.40
2023-01-17T13:44:58.927Z,3.42
2023-01-17T13:47:42.592Z,3.45
2023-01-17T13:50:55.468Z,3.34
2023-01-17T13:53:48.828Z,3.32
2023-01-17T13:56:33.218Z,3.23
2023-01-17T13:59:30.208Z,3.26
2023-01-17T14:01:58.645Z,3.17
2023-01-17T14:05:10.156Z,3.10
2023-01-17T14:07:48.456Z,3.14
2023-01-17T14:10:34.136Z,3.15
2023-01-17T14:13:04.127Z,3.08
2023-01-17T14:15:47.741Z,3.12
2023-01-17T14:18:34.901Z,3.13
2023-01-17T14:21:12.567Z,3.08
2023-01-17T14:24:15.965Z,3.02
2023-01-17T14:26:57.386Z,3.03
2023-01-17T14:29:49.280Z,3.05
2023-01-17T14:32:20.771Z,3.04
2023-01-17T14:34:51.983Z,3.04
2023-01-17T14:37:46.869Z,3.00
2023-01-17T14:40:21.991Z,2.99
2023-01-17T14:43:00.158Z,3.02
2023-01-17T14:45:31.127Z,2.96
2023-01-17T14:48:02.414Z,2.99
2023-01-17T14:50:37.612Z,3.01
2023-01-17T14:53:20.136Z,2.98
2023-01-17T14:55:56.493Z,2.96
2023-01-17T14:58:28.845Z,2.90
2023-01-17T15:01:01.346Z,2.90
2023-01-17T15:03:34.569Z,2.90
2023-01-17T15:06:12.546Z,2.88
2023-01-17T15:08:41.015Z,2.84
2023-01-17T15:11:19.367Z,2.85
2023-01-17T15:13:51.611Z,2.82
2023-01-17T15:16:24.047Z,2.87
2023-01-17T15:18:53.483Z,2.80
2023-01-17T15:21:25.616Z,2.80
2023-01-17T15:23:58.119Z,2.81
2023-01-17T15:26:30.725Z,2.79
2023-01-17T15:29:06.934Z,2.75
2023-01-17T15:31:45.434Z,2.72
2023-01-17T15:34:29.372Z,2.71
2023-01-17T15:37:01.061Z,2.67
2023-01-17T15:39:32.883Z,2.60
2023-01-17T15:42:06.931Z,2.61
2023-01-17T15:44:48.204Z,2.58
2023-01-17T15:47:30.684Z,2.49
2023-01-17T15:50:00.584Z,2.51
2023-01-17T15:52:32.866Z,2.50
2023-01-17T15:55:15.159Z,2.51
2023-01-17T15:57:48.456Z,2.49
2023-01-17T16:00:26.182Z,2.46
2023-01-17T16:02:57.053Z,2.44
2023-01-17T16:05:41.709Z,2.47
2023-01-17T16:08:33.935Z,2.41
2023-01-17T16:11:06.010Z,2.41
2023-01-17T16:13:38.503Z,2.37
2023-01-17T16:16:17.722Z,2.36
2023-01-17T16:18:47.634Z,2.32
2023-01-17T16:21:25.800Z,2.26
2023-01-17T16:23:54.692Z,2.29
2023-01-17T16:26:23.559Z,2.29
2023-01-17T16:28:53.306Z,2.24
2023-01-17T16:31:21.678Z,2.21
2023-01-17T16:33:51.628Z,2.16
2023-01-17T16:36:21.337Z,2.15
2023-01-17T16:38:52.130Z,2.13
2023-01-17T16:41:21.328Z,2.14
2023-01-17T16:44:00.922Z,2.11
2023-01-17T16:46:30.455Z,2.12
2023-01-17T16:49:01.683Z,2.03
2023-01-17T16:51:29.787Z,1.95
2023-01-17T16:53:58.126Z,1.87
2023-01-17T16:56:26.190Z,1.82
2023-01-17T16:58:56.219Z,1.81
2023-01-17T17:01:25.227Z,1.79
2023-01-17T17:03:53.443Z,1.73
2023-01-17T17:06:21.676Z,1.69
2023-01-17T17:08:49.857Z,1.67
2023-01-17T17:11:20.345Z,1.67
2023-01-17T17:13:51.021Z,1.64
2023-01-17T17:16:26.699Z,1.59
2023-01-17T17:19:01.647Z,1.47
2023-01-17T17:21:31.729Z,1.56
2023-01-17T17:24:01.642Z,1.47
2023-01-17T17:26:34.378Z,1.35
2023-01-17T17:29:03.810Z,1.30
2023-01-17T17:31:33.361Z,1.33
2023-01-17T17:34:03.498Z,1.37
2023-01-17T17:36:32.298Z,1.40
2023-01-17T17:39:03.530Z,1.46
2023-01-17T17:41:34.566Z,1.55
2023-01-17T17:44:04.717Z,1.51
2023-01-17T17:46:34.935Z,1.47
2023-01-17T17:49:03.439Z,1.47
2023-01-17T17:51:35.241Z,1.46
2023-01-17T17:54:07.146Z,1.48
2023-01-17T17:56:36.815Z,1.45
2023-01-17T17:59:07.408Z,1.33
2023-01-17T18:01:38.153Z,1.29
2023-01-17T18:04:07.617Z,1.25
2023-01-17T18:06:38.509Z,1.19
2023-01-17T18:09:07.998Z,1.20
2023-01-17T18:11:38.326Z,1.16
2023-01-17T18:14:09.463Z,1.13
2023-01-17T18:16:42.152Z,1.11
2023-01-17T18:19:15.496Z,1.09
2023-01-17T18:21:43.950Z,1.07
2023-01-17T18:24:15.009Z,1.06
2023-01-17T18:26:46.519Z,1.09
2023-01-17T18:29:17.736Z,1.06
2023-01-17T18:31:50.067Z,1.00
2023-01-17T18:34:21.188Z,0.95
2023-01-17T18:36:49.599Z,0.90
2023-01-17T18:39:20.607Z,0.86
2023-01-17T18:41:49.396Z,0.84
2023-01-17T18:44:21.806Z,0.74
2023-01-17T18:46:53.543Z,0.80
2023-01-17T18:49:22.014Z,0.77
2023-01-17T18:51:51.746Z,0.71
2023-01-17T18:54:21.026Z,0.66
2023-01-17T18:56:49.685Z,0.61
2023-01-17T18:59:19.614Z,0.51
2023-01-17T19:01:48.349Z,0.58
2023-01-17T19:04:18.865Z,0.60
2023-01-17T19:06:49.079Z,0.57
2023-01-17T19:09:17.974Z,0.55
2023-01-17T19:11:47.483Z,0.61
2023-01-17T19:14:15.841Z,0.59
2023-01-17T19:16:44.924Z,0.54
2023-01-17T19:19:16.764Z,0.52
2023-01-17T19:21:45.292Z,0.46
2023-01-17T19:24:14.280Z,0.44
2023-01-17T19:26:42.745Z,0.36
2023-01-17T19:29:13.119Z,0.32
2023-01-17T19:31:42.902Z,0.31
2023-01-17T19:34:13.691Z,0.28
2023-01-17T19:36:43.765Z,0.19
2023-01-17T19:39:12.592Z,0.17
2023-01-17T19:41:45.545Z,0.15
2023-01-17T19:44:15.496Z,0.11
2023-01-17T19:46:44.209Z,0.14
2023-01-17T19:49:12.606Z,0.18
2023-01-17T19:51:42.027Z,0.12
2023-01-17T19:54:10.587Z,0.08
2023-01-17T19:56:38.700Z,0.08
2023-01-17T19:59:07.071Z,0.08
2023-01-17T20:01:36.185Z,0.04
2023-01-17T20:04:04.841Z,0.06
2023-01-17T20:06:36.958Z,0.04
2023-01-17T20:09:07.987Z,0.03
2023-01-17T20:11:36.157Z,-0.05
2023-01-17T20:14:06.129Z,-0.06
2023-01-17T20:16:37.363Z,0.00
2023-01-17T20:19:06.041Z,-0.04
2023-01-17T20:21:34.320Z,-0.04
2023-01-17T20:24:04.144Z,0.01
2023-01-17T20:26:36.607Z,-0.04
2023-01-17T20:29:10.443Z,-0.02
2023-01-17T20:31:39.862Z,0.12
2023-01-17T20:34:11.441Z,0.19
2023-01-17T20:36:41.522Z,0.19
2023-01-17T20:39:12.093Z,0.12
2023-01-17T20:41:44.748Z,0.00
2023-01-17T20:44:16.224Z,-0.11
2023-01-17T20:46:45.425Z,-0.17
2023-01-17T20:49:18.719Z,-0.21
2023-01-17T20:51:48.088Z,-0.24
2023-01-17T20:54:18.939Z,-0.25
2023-01-17T20:56:48.945Z,-0.25
2023-01-17T20:59:20.116Z,-0.19
2023-01-17T21:01:48.544Z,-0.22
2023-01-17T21:04:17.908Z,-0.27
2023-01-17T21:06:46.722Z,-0.32
2023-01-17T21:09:17.098Z,-0.38
2023-01-17T21:11:45.225Z,-0.41
2023-01-17T21:14:14.896Z,-0.47
2023-01-17T21:16:43.227Z,-0.41
2023-01-17T21:19:14.874Z,-0.47
2023-01-17T21:21:43.041Z,-0.49
2023-01-17T21:24:16.154Z,-0.38
2023-01-17T21:26:45.607Z,-0.33
2023-01-17T21:29:16.028Z,-0.39
2023-01-17T21:31:45.159Z,-0.46
2023-01-17T21:34:14.622Z,-0.52
2023-01-17T21:36:44.117Z,-0.54
2023-01-17T21:39:15.922Z,-0.42
2023-01-17T21:41:47.754Z,-0.45
2023-01-17T21:44:21.175Z,-0.38
2023-01-17T21:46:54.138Z,-0.30
2023-01-17T21:49:24.202Z,-0.36
2023-01-17T21:52:09.878Z,-0.44
2023-01-17T21:54:55.959Z,-0.46
2023-01-17T21:57:41.608Z,-0.43
2023-01-17T22:00:15.276Z,-0.49
2023-01-17T22:02:44.040Z,-0.54
2023-01-17T22:05:12.663Z,-0.56
2023-01-17T22:08:01.462Z,-0.63
2023-01-17T22:10:29.634Z,-0.77
2023-01-17T22:12:57.787Z,-0.86
2023-01-17T22:15:27.757Z,-0.86
2023-01-17T22:17:56.285Z,-0.88
2023-01-17T22:20:24.563Z,-0.93
2023-01-17T22:22:52.634Z,-0.84
2023-01-17T22:25:21.021Z,-0.87
2023-01-17T22:27:49.439Z,-0.83
2023-01-17T22:30:19.417Z,-0.89
2023-01-17T22:32:48.848Z,-0.94
2023-01-17T22:35:17.067Z,-0.97
2023-01-17T22:37:45.215Z,-1.03
2023-01-17T22:40:14.260Z,-1.04
2023-01-17T22:42:42.462Z,-0.99
2023-01-17T22:45:11.774Z,-0.99
2023-01-17T22:47:40.195Z,-0.97
2023-01-17T22:50:12.211Z,-0.92
2023-01-17T22:52:40.370Z,-0.90
2023-01-17T22:55:09.308Z,-0.96
2023-01-17T22:57:37.358Z,-0.92
2023-01-17T23:00:14.356Z,-0.91
2023-01-17T23:02:42.886Z,-0.87
2023-01-17T23:05:12.627Z,-0.88
2023-01-17T23:07:44.092Z,-0.90
2023-01-17T23:10:34.903Z,-0.90
2023-01-17T23:13:02.983Z,-0.99
2023-01-17T23:15:48.424Z,-1.08
2023-01-17T23:18:33.917Z,-1.18
2023-01-17T23:21:03.327Z,-1.27
2023-01-17T23:23:32.812Z,-1.26
2023-01-17T23:26:01.798Z,-1.26
2023-01-17T23:28:28.884Z,-1.27
2023-01-17T23:31:04.830Z,-1.35
2023-01-17T23:33:33.217Z,-1.41
2023-01-17T23:36:01.459Z,-1.27
2023-01-17T23:38:31.143Z,-1.33
2023-01-17T23:41:28.887Z,-1.34
2023-01-17T23:43:59.437Z,-1.36
2023-01-17T23:46:29.950Z,-1.40
2023-01-17T23:48:58.096Z,-1.46
2023-01-17T23:51:26.160Z,-1.50
2023-01-17T23:54:05.098Z,-1.45
2023-01-17T23:56:33.159Z,-1.43
2023-01-17T23:59:01.970Z,-1.39
